createdAt,value
2023-04-25T00:02:11.757Z,98475.75
2023-04-25T00:05:00.371Z,98469.91
2023-04-25T00:07:47.603Z,98474.44
2023-04-25T00:10:34.695Z,98473.69
2023-04-25T00:13:22.717Z,98447.91
2023-04-25T00:16:09.888Z,98465.97
2023-04-25T00:18:57.816Z,98433.19
2023-04-25T00:21:47.402Z,98466.72
2023-04-25T00:24:34.507Z,98471.25
2023-04-25T00:27:21.664Z,98460.59
2023-04-25T00:30:09.496Z,98461.16
2023-04-25T00:32:56.602Z,98465.06
2023-04-25T00:35:43.862Z,98460.47
2023-04-25T00:38:30.914Z,98453.56
2023-04-25T00:41:18.326Z,98450.75
2023-04-25T00:44:07.998Z,98465.41
2023-04-25T00:46:55.783Z,98456.75
2023-04-25T00:49:42.826Z,98457.78
2023-04-25T00:52:29.996Z,98451.91
2023-04-25T00:55:17.418Z,98457.63
2023-04-25T00:58:04.776Z,98443.78
2023-04-25T01:00:53.387Z,98450.91
2023-04-25T01:03:44.716Z,98452.59
2023-04-25T01:06:33.060Z,98439.38
2023-04-25T01:09:20.996Z,98443.34
2023-04-25T01:12:08.387Z,98440.72
2023-04-25T01:14:55.566Z,98430.78
2023-04-25T01:17:44.006Z,98433.53
2023-04-25T01:20:33.641Z,98450.91
2023-04-25T01:23:24.553Z,98439.16
2023-04-25T01:26:12.912Z,98432.84
2023-04-25T01:29:00.836Z,98441.16
2023-04-25T01:31:48.222Z,98441.31
2023-04-25T01:34:35.538Z,98441.47
2023-04-25T01:37:23.448Z,98443.56
2023-04-25T01:40:12.456Z,98447.88
2023-04-25T01:42:59.637Z,98436.00
2023-04-25T01:45:46.993Z,98439.47
2023-04-25T01:48:34.110Z,98446.25
2023-04-25T01:51:21.356Z,98435.63
2023-04-25T01:54:09.376Z,98437.41
2023-04-25T01:56:58.378Z,98426.84
2023-04-25T01:59:45.890Z,98427.31
2023-04-25T02:02:33.058Z,98437.00
2023-04-25T02:05:21.913Z,98436.31
2023-04-25T02:08:10.432Z,98444.38
2023-04-25T02:10:57.538Z,98440.63
2023-04-25T02:13:44.554Z,98448.59
2023-04-25T02:16:32.000Z,98444.13
2023-04-25T02:19:19.180Z,98436.97
2023-04-25T02:22:06.484Z,98440.34
2023-04-25T02:24:54.816Z,98434.19
2023-04-25T02:27:41.876Z,98447.78
2023-04-25T02:30:28.990Z,98441.75
2023-04-25T02:33:18.094Z,98450.75
2023-04-25T02:36:05.531Z,98444.03
2023-04-25T02:38:53.125Z,98440.25
2023-04-25T02:41:40.126Z,98446.13
2023-04-25T02:44:27.609Z,98435.03
2023-04-25T02:47:14.771Z,98431.81
2023-04-25T02:50:01.905Z,98443.03
2023-04-25T02:52:48.964Z,98441.50
2023-04-25T02:55:36.335Z,98430.56
2023-04-25T02:58:23.381Z,98422.56
2023-04-25T03:01:10.577Z,98434.06
2023-04-25T03:03:57.815Z,98424.50
2023-04-25T03:06:44.847Z,98432.78
2023-04-25T03:09:31.894Z,98436.13
2023-04-25T03:12:19.161Z,98434.44
2023-04-25T03:15:06.868Z,98437.81
2023-04-25T03:17:54.026Z,98430.66
2023-04-25T03:20:42.855Z,98410.56
2023-04-25T03:23:30.034Z,98433.97
2023-04-25T03:26:17.085Z,98426.13
2023-04-25T03:29:04.428Z,98420.63
2023-04-25T03:31:51.486Z,98412.72
2023-04-25T03:34:38.673Z,98407.78
2023-04-25T03:37:25.817Z,98406.00
2023-04-25T03:40:13.327Z,98413.84
2023-04-25T03:43:00.489Z,98406.81
2023-04-25T03:45:47.548Z,98425.34
2023-04-25T03:48:35.047Z,98416.50
2023-04-25T03:51:22.083Z,98409.63
2023-04-25T03:54:09.101Z,98415.94
2023-04-25T03:56:56.275Z,98397.44
2023-04-25T03:59:43.362Z,98420.13
2023-04-25T04:02:30.826Z,98415.19
2023-04-25T04:05:18.118Z,98424.84
2023-04-25T04:08:05.680Z,98425.97
2023-04-25T04:10:52.734Z,98437.94
2023-04-25T04:13:39.849Z,98434.41
2023-04-25T04:16:26.952Z,98419.03
2023-04-25T04:19:14.371Z,98426.44
2023-04-25T04:22:01.395Z,98420.44
2023-04-25T04:24:48.530Z,98421.13
2023-04-25T04:27:35.595Z,98421.00
2023-04-25T04:30:26.575Z,98432.22
2023-04-25T04:33:14.223Z,98428.56
2023-04-25T04:36:02.058Z,98418.06
2023-04-25T04:38:49.221Z,98419.88
2023-04-25T04:41:36.320Z,98405.81
2023-04-25T04:44:23.967Z,98420.72
2023-04-25T04:47:11.847Z,98428.53
2023-04-25T04:49:59.062Z,98431.22
2023-04-25T04:52:46.191Z,98422.38
2023-04-25T04:55:33.192Z,98413.56
2023-04-25T04:58:20.376Z,98429.13
2023-04-25T05:01:07.672Z,98425.63
2023-04-25T05:03:55.392Z,98429.97
2023-04-25T05:06:42.740Z,98438.09
2023-04-25T05:09:29.860Z,98443.00
2023-04-25T05:12:16.889Z,98439.50
2023-04-25T05:15:04.088Z,98436.00
2023-04-25T05:17:51.320Z,98449.47
2023-04-25T05:20:38.493Z,98434.75
2023-04-25T05:23:26.117Z,98437.69
2023-04-25T05:26:15.105Z,98424.53
2023-04-25T05:29:02.278Z,98405.38
2023-04-25T05:31:49.472Z,98405.66
2023-04-25T05:34:36.660Z,98409.84
2023-04-25T05:37:23.756Z,98403.78
2023-04-25T05:40:11.235Z,98409.28
2023-04-25T05:42:58.326Z,98407.44
2023-04-25T05:45:45.423Z,98396.41
2023-04-25T05:48:32.526Z,98403.66
2023-04-25T05:51:19.630Z,98385.66
2023-04-25T05:54:06.700Z,98396.59
2023-04-25T05:56:53.773Z,98379.06
2023-04-25T05:59:40.790Z,98381.25
2023-04-25T06:02:28.177Z,98388.63
2023-04-25T06:05:15.626Z,98387.66
2023-04-25T06:08:02.892Z,98386.72
2023-04-25T06:10:49.992Z,98391.69
2023-04-25T06:13:37.068Z,98389.22
2023-04-25T06:16:25.999Z,98389.19
2023-04-25T06:19:13.020Z,98388.72
2023-04-25T06:22:00.101Z,98385.34
2023-04-25T06:24:47.406Z,98370.09
2023-04-25T06:27:35.200Z,98393.00
2023-04-25T06:30:25.987Z,98386.88
2023-04-25T06:33:13.090Z,98369.47
2023-04-25T06:36:00.212Z,98369.81
2023-04-25T06:38:47.230Z,98365.78
2023-04-25T06:41:34.369Z,98373.09
2023-04-25T06:44:22.341Z,98350.84
2023-04-25T06:47:09.556Z,98368.69
2023-04-25T06:49:56.966Z,98353.94
2023-04-25T06:52:44.032Z,98353.78
2023-04-25T06:55:31.572Z,98349.81
2023-04-25T06:58:19.184Z,98339.41
2023-04-25T07:01:06.405Z,98338.84
2023-04-25T07:03:53.588Z,98335.09
2023-04-25T07:06:43.804Z,98337.81
2023-04-25T07:09:31.341Z,98330.22
2023-04-25T07:12:18.445Z,98338.22
2023-04-25T07:15:07.302Z,98339.75
2023-04-25T07:17:54.413Z,98321.81
2023-04-25T07:20:41.412Z,98319.50
2023-04-25T07:23:28.572Z,98311.59
2023-04-25T07:26:15.688Z,98311.00
2023-04-25T07:29:02.960Z,98315.63
2023-04-25T07:31:50.170Z,98315.06
2023-04-25T07:34:38.575Z,98316.13
2023-04-25T07:37:27.198Z,98316.03
2023-04-25T07:40:14.492Z,98307.03
2023-04-25T07:43:01.767Z,98303.19
2023-04-25T07:45:49.264Z,98302.47
2023-04-25T07:48:36.348Z,98313.56
2023-04-25T07:51:23.564Z,98305.19
2023-04-25T07:54:11.226Z,98301.41
2023-04-25T07:56:58.598Z,98312.53
2023-04-25T07:59:45.816Z,98295.97
2023-04-25T08:02:33.190Z,98297.09
2023-04-25T08:05:22.719Z,98284.94
2023-04-25T08:08:10.069Z,98301.41
2023-04-25T08:10:57.152Z,98284.44
2023-04-25T08:13:44.272Z,98283.66
2023-04-25T08:16:31.508Z,98294.03
2023-04-25T08:19:18.760Z,98285.50
2023-04-25T08:22:05.900Z,98284.97
2023-04-25T08:24:53.013Z,98280.97
2023-04-25T08:27:40.080Z,98284.97
2023-04-25T08:30:28.202Z,98280.97
2023-04-25T08:33:15.702Z,98280.16
2023-04-25T08:36:02.952Z,98262.41
2023-04-25T08:38:50.235Z,98257.69
2023-04-25T08:41:38.680Z,98254.28
2023-04-25T08:44:26.171Z,98266.44
2023-04-25T08:47:13.726Z,98263.63
2023-04-25T08:50:01.197Z,98261.97
2023-04-25T08:52:51.594Z,98254.69
2023-04-25T08:55:42.887Z,98259.59
2023-04-25T08:58:30.533Z,98258.97
2023-04-25T09:01:19.595Z,98266.16
2023-04-25T09:04:06.969Z,98265.22
2023-04-25T09:06:54.170Z,98254.22
2023-04-25T09:09:41.341Z,98267.78
2023-04-25T09:12:30.458Z,98256.47
2023-04-25T09:15:20.838Z,98260.16
2023-04-25T09:18:08.261Z,98255.91
2023-04-25T09:21:01.752Z,98262.53
2023-04-25T09:23:50.823Z,98251.97
2023-04-25T09:26:38.964Z,98247.66
2023-04-25T09:29:36.333Z,98269.00
2023-04-25T09:32:25.305Z,98267.34
2023-04-25T09:35:25.518Z,98258.03
2023-04-25T09:38:14.279Z,98263.81
2023-04-25T09:41:01.990Z,98258.97
2023-04-25T09:43:51.503Z,98269.47
2023-04-25T09:46:38.810Z,98270.13
2023-04-25T09:49:29.409Z,98271.00
2023-04-25T09:52:23.268Z,98280.19
2023-04-25T09:55:12.345Z,98292.53
2023-04-25T09:58:05.450Z,98305.25
2023-04-25T10:00:52.770Z,98298.03
2023-04-25T10:03:41.332Z,98309.63
2023-04-25T10:06:30.018Z,98328.78
2023-04-25T10:09:19.747Z,98341.91
2023-04-25T10:12:08.822Z,98351.22
2023-04-25T10:14:56.514Z,98377.34
2023-04-25T10:17:44.962Z,98366.38
2023-04-25T10:20:32.660Z,98372.50
2023-04-25T10:23:21.235Z,98350.06
2023-04-25T10:26:13.817Z,98336.03
2023-04-25T10:29:03.553Z,98325.63
2023-04-25T10:31:51.195Z,98333.47
2023-04-25T10:34:43.231Z,98346.72
2023-04-25T10:37:31.548Z,98339.78
2023-04-25T10:40:23.242Z,98348.47
2023-04-25T10:43:32.091Z,98339.16
2023-04-25T10:46:19.520Z,98346.56
2023-04-25T10:49:09.203Z,98352.63
2023-04-25T10:52:28.994Z,98375.09
2023-04-25T10:55:16.331Z,98396.66
2023-04-25T10:58:03.608Z,98402.03
2023-04-25T11:03:44.844Z,98353.53
2023-04-25T11:06:55.915Z,98337.00
2023-04-25T11:09:48.415Z,98332.06
2023-04-25T11:12:35.781Z,98319.69
2023-04-25T11:15:22.894Z,98319.72
2023-04-25T11:18:10.053Z,98300.41
2023-04-25T11:20:57.862Z,98310.19
2023-04-25T11:23:47.886Z,98308.69
2023-04-25T11:26:34.907Z,98313.06
2023-04-25T11:29:28.145Z,98297.28
2023-04-25T11:32:17.551Z,98298.00
2023-04-25T11:35:07.279Z,98279.84
2023-04-25T11:37:54.480Z,98293.59
2023-04-25T11:40:41.783Z,98277.69
2023-04-25T11:43:29.004Z,98288.13
2023-04-25T11:46:17.122Z,98284.28
2023-04-25T11:49:05.968Z,98269.06
2023-04-25T11:51:53.044Z,98278.25
2023-04-25T11:54:40.167Z,98271.41
2023-04-25T11:57:27.302Z,98274.75
2023-04-25T12:00:22.480Z,98287.03
2023-04-25T12:03:11.120Z,98287.59
2023-04-25T12:06:05.284Z,98325.41
2023-04-25T12:09:06.017Z,98345.31
2023-04-25T12:11:57.139Z,98384.94
2023-04-25T12:14:51.264Z,98417.25
2023-04-25T12:17:40.265Z,98426.16
2023-04-25T12:20:27.358Z,98415.53
2023-04-25T12:23:14.396Z,98418.56
2023-04-25T12:26:03.903Z,98408.75
2023-04-25T12:28:51.343Z,98406.94
2023-04-25T12:31:38.723Z,98394.50
2023-04-25T12:34:25.860Z,98405.53
2023-04-25T12:37:13.018Z,98396.09
2023-04-25T12:40:00.067Z,98385.34
2023-04-25T12:42:47.164Z,98360.59
2023-04-25T12:45:34.286Z,98361.19
2023-04-25T12:48:22.118Z,98338.78
2023-04-25T12:51:09.119Z,98340.72
2023-04-25T12:53:56.420Z,98332.06
2023-04-25T12:56:43.659Z,98321.50
2023-04-25T12:59:30.915Z,98318.88
2023-04-25T13:02:18.030Z,98330.66
2023-04-25T13:05:05.590Z,98326.19
2023-04-25T13:07:52.659Z,98308.91
2023-04-25T13:10:40.552Z,98306.81
2023-04-25T13:13:28.476Z,98321.75
2023-04-25T13:16:15.902Z,98330.53
2023-04-25T13:19:03.030Z,98332.41
2023-04-25T13:21:50.132Z,98314.97
2023-04-25T13:24:37.191Z,98321.19
2023-04-25T13:27:24.216Z,98326.16
2023-04-25T13:30:11.541Z,98330.53
2023-04-25T13:33:04.344Z,98332.47
2023-04-25T13:35:58.570Z,98330.59
2023-04-25T13:38:48.395Z,98337.44
2023-04-25T13:41:35.978Z,98322.03
2023-04-25T13:44:23.029Z,98309.03
2023-04-25T13:47:10.128Z,98316.22
2023-04-25T13:49:57.868Z,98312.69
2023-04-25T13:52:44.934Z,98309.31
2023-04-25T13:55:32.239Z,98307.19
2023-04-25T13:58:19.351Z,98309.66
2023-04-25T14:01:06.548Z,98318.13
2023-04-25T14:03:53.969Z,98300.22
2023-04-25T14:06:42.493Z,98312.75
2023-04-25T14:09:29.914Z,98325.13
2023-04-25T14:12:17.574Z,98327.47
2023-04-25T14:15:05.382Z,98332.75
2023-04-25T14:17:52.764Z,98340.09
2023-04-25T14:20:39.842Z,98339.44
2023-04-25T14:23:26.890Z,98343.09
2023-04-25T14:26:14.065Z,98353.94
2023-04-25T14:29:01.229Z,98372.78
2023-04-25T14:31:48.592Z,98386.34
2023-04-25T14:34:35.920Z,98401.66
2023-04-25T14:37:23.088Z,98405.44
2023-04-25T14:40:14.353Z,98423.69
2023-04-25T14:43:02.458Z,98434.19
2023-04-25T14:45:49.732Z,98455.41
2023-04-25T14:48:37.083Z,98452.84
2023-04-25T14:51:24.489Z,98452.97
2023-04-25T14:54:13.129Z,98463.84
2023-04-25T14:57:00.285Z,98446.94
2023-04-25T14:59:47.484Z,98434.28
2023-04-25T15:02:35.778Z,98449.06
2023-04-25T15:05:23.001Z,98441.22
2023-04-25T15:08:10.259Z,98446.75
2023-04-25T15:10:57.689Z,98430.97
2023-04-25T15:13:44.878Z,98436.50
2023-04-25T15:16:32.585Z,98423.63
2023-04-25T15:19:19.709Z,98431.81
2023-04-25T15:22:07.980Z,98423.09
2023-04-25T15:24:55.765Z,98430.50
2023-04-25T15:27:44.763Z,98427.63
2023-04-25T15:30:31.939Z,98438.19
2023-04-25T15:33:19.068Z,98428.47
2023-04-25T15:36:06.636Z,98438.38
2023-04-25T15:38:53.776Z,98442.06
2023-04-25T15:41:41.966Z,98447.94
2023-04-25T15:44:29.280Z,98444.56
2023-04-25T15:47:16.495Z,98414.53
2023-04-25T15:50:05.251Z,98445.25
2023-04-25T15:52:52.603Z,98448.41
2023-04-25T15:55:40.081Z,98473.47
2023-04-25T15:58:27.611Z,98474.53
2023-04-25T16:01:15.153Z,98491.41
2023-04-25T16:04:02.815Z,98485.41
2023-04-25T16:06:50.047Z,98488.66
2023-04-25T16:09:37.616Z,98508.44
2023-04-25T16:12:24.797Z,98499.16
2023-04-25T16:15:11.920Z,98512.53
2023-04-25T16:17:59.006Z,98491.94
2023-04-25T16:20:46.254Z,98487.09
2023-04-25T16:23:33.810Z,98463.28
2023-04-25T16:26:20.897Z,98480.53
2023-04-25T16:29:08.311Z,98470.25
2023-04-25T16:31:56.217Z,98457.34
2023-04-25T16:34:43.328Z,98488.31
2023-04-25T16:37:31.204Z,98483.59
2023-04-25T16:40:18.298Z,98490.50
2023-04-25T16:43:05.437Z,98486.34
2023-04-25T16:45:52.556Z,98473.72
2023-04-25T16:48:39.592Z,98478.78
2023-04-25T16:51:28.174Z,98490.53
2023-04-25T16:54:17.851Z,98497.78
2023-04-25T16:57:05.650Z,98485.22
2023-04-25T16:59:52.745Z,98504.31
2023-04-25T17:02:40.357Z,98499.00
2023-04-25T17:05:27.638Z,98494.75
2023-04-25T17:08:14.811Z,98503.41
2023-04-25T17:11:03.038Z,98504.25
2023-04-25T17:13:51.351Z,98504.50
2023-04-25T17:16:40.111Z,98516.72
2023-04-25T17:19:28.664Z,98524.97
2023-04-25T17:22:16.186Z,98519.75
2023-04-25T17:25:07.756Z,98542.63
2023-04-25T17:27:55.080Z,98539.59
2023-04-25T17:30:43.126Z,98553.25
2023-04-25T17:33:30.470Z,98571.91
2023-04-25T17:36:18.682Z,98582.41
2023-04-25T17:39:07.616Z,98578.75
2023-04-25T17:41:55.300Z,98586.47
2023-04-25T17:44:43.625Z,98575.75
2023-04-25T17:47:32.188Z,98590.28
2023-04-25T17:50:19.706Z,98583.94
2023-04-25T17:53:06.867Z,98591.75
2023-04-25T17:55:54.477Z,98598.78
2023-04-25T17:58:42.199Z,98590.94
2023-04-25T18:01:29.639Z,98584.16
2023-04-25T18:04:18.154Z,98585.44
2023-04-25T18:07:06.068Z,98601.13
2023-04-25T18:09:53.356Z,98600.91
2023-04-25T18:12:41.316Z,98591.19
2023-04-25T18:15:29.487Z,98594.16
2023-04-25T18:18:20.659Z,98597.97
2023-04-25T18:21:09.243Z,98610.53
2023-04-25T18:23:56.677Z,98602.06
2023-04-25T18:26:49.163Z,98612.47
2023-04-25T18:29:38.374Z,98606.19
2023-04-25T18:32:28.722Z,98629.41
2023-04-25T18:35:16.008Z,98648.88
2023-04-25T18:38:04.519Z,98647.19
2023-04-25T18:41:01.342Z,98666.44
2023-04-25T18:44:02.380Z,98672.69
2023-04-25T18:46:50.406Z,98675.75
2023-04-25T18:49:38.136Z,98677.44
2023-04-25T18:52:26.823Z,98679.13
2023-04-25T18:55:14.936Z,98674.75
2023-04-25T18:58:02.506Z,98689.41
2023-04-25T19:00:50.550Z,98690.03
2023-04-25T19:03:38.784Z,98699.72
2023-04-25T19:06:30.144Z,98704.31
2023-04-25T19:09:18.957Z,98712.75
2023-04-25T19:12:06.912Z,98706.75
2023-04-25T19:14:54.538Z,98725.03
2023-04-25T19:17:42.845Z,98720.44
2023-04-25T19:20:30.387Z,98723.25
2023-04-25T19:23:18.403Z,98725.91
2023-04-25T19:26:06.863Z,98731.69
2023-04-25T19:29:24.752Z,98736.06
2023-04-25T19:32:13.131Z,98738.72
2023-04-25T19:35:00.719Z,98732.41
2023-04-25T19:37:49.495Z,98739.72
2023-04-25T19:40:38.804Z,98748.31
2023-04-25T19:43:26.723Z,98763.78
2023-04-25T19:46:14.660Z,98755.75
2023-04-25T19:49:04.641Z,98760.25
2023-04-25T19:51:53.508Z,98757.44
2023-04-25T19:54:42.115Z,98769.97
2023-04-25T19:57:33.664Z,98766.03
2023-04-25T20:00:22.574Z,98766.63
2023-04-25T20:03:11.313Z,98768.84
2023-04-25T20:06:01.337Z,98780.13
2023-04-25T20:08:50.597Z,98789.97
2023-04-25T20:11:48.993Z,98786.31
2023-04-25T20:14:36.809Z,98778.16
2023-04-25T20:17:24.722Z,98790.81
2023-04-25T20:20:12.881Z,98787.28
2023-04-25T20:23:00.231Z,98774.91
2023-04-25T20:25:48.341Z,98776.31
2023-04-25T20:28:35.988Z,98773.09
2023-04-25T20:31:24.250Z,98786.28
2023-04-25T20:34:11.931Z,98785.16
2023-04-25T20:36:59.612Z,98793.03
2023-04-25T20:39:47.042Z,98786.84
2023-04-25T20:42:34.464Z,98795.44
2023-04-25T20:45:21.636Z,98791.50
2023-04-25T20:48:08.762Z,98803.19
2023-04-25T20:50:57.084Z,98792.31
2023-04-25T20:53:44.166Z,98802.31
2023-04-25T20:56:31.496Z,98814.69
2023-04-25T20:59:18.650Z,98814.28
2023-04-25T21:02:05.817Z,98827.38
2023-04-25T21:04:52.897Z,98811.31
2023-04-25T21:07:40.046Z,98822.16
2023-04-25T21:10:27.216Z,98826.81
2023-04-25T21:13:14.413Z,98824.84
2023-04-25T21:16:01.697Z,98838.34
2023-04-25T21:18:48.876Z,98834.69
2023-04-25T21:21:36.106Z,98840.13
2023-04-25T21:24:23.194Z,98847.63
2023-04-25T21:27:10.267Z,98837.50
2023-04-25T21:29:57.320Z,98852.16
2023-04-25T21:32:48.502Z,98850.59
2023-04-25T21:35:36.043Z,98843.41
2023-04-25T21:38:23.060Z,98843.13
2023-04-25T21:41:10.238Z,98847.78
2023-04-25T21:43:57.279Z,98839.59
2023-04-25T21:46:44.408Z,98831.03
2023-04-25T21:49:33.043Z,98842.28
2023-04-25T21:52:20.429Z,98841.59
2023-04-25T21:55:08.255Z,98845.66
2023-04-25T21:57:55.449Z,98841.47
2023-04-25T22:00:42.749Z,98843.13
2023-04-25T22:03:29.986Z,98845.81
2023-04-25T22:06:17.186Z,98860.72
2023-04-25T22:09:04.946Z,98869.00
2023-04-25T22:11:53.378Z,98866.47
2023-04-25T22:14:41.729Z,98852.97
2023-04-25T22:17:29.935Z,98862.81
2023-04-25T22:20:17.370Z,98874.34
2023-04-25T22:23:04.449Z,98871.66
2023-04-25T22:25:51.532Z,98870.00
2023-04-25T22:28:39.877Z,98873.38
2023-04-25T22:31:27.803Z,98875.22
2023-04-25T22:34:15.038Z,98878.88
2023-04-25T22:37:02.269Z,98868.19
2023-04-25T22:39:49.276Z,98876.22
2023-04-25T22:42:46.282Z,98883.22
2023-04-25T22:45:34.623Z,98889.56
2023-04-25T22:48:21.718Z,98886.06
2023-04-25T22:51:08.771Z,98888.00
2023-04-25T22:53:56.352Z,98898.69
2023-04-25T22:56:44.060Z,98909.81
2023-04-25T22:59:31.130Z,98906.84
2023-04-25T23:03:34.076Z,98899.69
2023-04-25T23:06:21.212Z,98895.31
2023-04-25T23:09:10.293Z,98907.69
2023-04-25T23:11:57.540Z,98900.25
2023-04-25T23:14:45.184Z,98896.59
2023-04-25T23:17:32.627Z,98899.06
2023-04-25T23:20:21.159Z,98895.63
2023-04-25T23:23:08.492Z,98902.25
2023-04-25T23:25:56.905Z,98897.94
2023-04-25T23:28:45.264Z,98906.09
2023-04-25T23:31:32.458Z,98909.44
2023-04-25T23:34:19.609Z,98914.38
2023-04-25T23:37:07.252Z,98900.75
2023-04-25T23:39:54.295Z,98905.38
2023-04-25T23:42:42.427Z,98912.38
2023-04-25T23:45:30.384Z,98911.47
2023-04-25T23:48:17.454Z,98924.28
2023-04-25T23:51:04.516Z,98923.72
2023-04-25T23:53:51.624Z,98924.50
2023-04-25T23:56:38.708Z,98934.84
2023-04-25T23:59:25.917Z,98937.38
